Time;durP1;ratioP1;P1;durP2;ratioP2;P2;SDS_P1;SDS_P2;PMS_P1;PMS_P2;Temp;Humidity;BMP_temperature;BMP_pressure;BME280_temperature;BME280_humidity;BME280_pressure;Samples;Min_cycle;Max_cycle;Signal;HPM_P1;HPM_P2
2022/07/01 00:00:42;;;;;;;9.95;2.92;;;14.70;99.90;;;;;;5054128;28;20029;-68
2022/07/01 00:03:08;;;;;;;10.40;4.82;;;14.70;99.90;;;;;;5055071;28;20029;-68
2022/07/01 00:05:33;;;;;;;7.00;3.35;;;14.70;99.90;;;;;;5054939;28;20373;-69
2022/07/01 00:07:59;;;;;;;10.30;4.30;;;14.60;99.90;;;;;;5055016;28;20450;-70
2022/07/01 00:10:24;;;;;;;8.77;3.75;;;14.60;99.90;;;;;;5054779;28;20025;-68
2022/07/01 00:12:50;;;;;;;9.20;4.13;;;14.50;99.90;;;;;;5053608;28;20021;-71
2022/07/01 00:15:16;;;;;;;10.27;4.80;;;14.50;99.90;;;;;;5054681;28;20013;-68
2022/07/01 00:17:43;;;;;;;12.00;5.13;;;14.50;99.90;;;;;;5054899;28;20443;-70
2022/07/01 00:20:09;;;;;;;12.98;5.72;;;14.40;99.90;;;;;;5054917;28;20017;-68
2022/07/01 00:22:34;;;;;;;14.20;6.05;;;14.40;99.90;;;;;;5054308;28;20180;-67
2022/07/01 00:25:00;;;;;;;18.27;6.50;;;14.40;99.90;;;;;;5054644;28;20096;-68
2022/07/01 00:27:26;;;;;;;19.98;7.97;;;14.40;99.90;;;;;;5054384;28;20442;-71
2022/07/01 00:29:51;;;;;;;15.95;7.28;;;14.40;99.90;;;;;;5054413;28;20481;-68
2022/07/01 00:32:17;;;;;;;19.33;8.15;;;14.30;99.90;;;;;;5054554;28;20124;-68
2022/07/01 00:34:43;;;;;;;19.13;8.18;;;14.30;99.90;;;;;;5054145;28;20063;-67
2022/07/01 00:37:08;;;;;;;23.40;9.65;;;14.30;99.90;;;;;;5054431;28;20031;-68
2022/07/01 00:39:35;;;;;;;24.58;9.95;;;14.30;99.90;;;;;;5054436;28;20036;-67
2022/07/01 00:42:01;;;;;;;25.48;11.23;;;14.30;99.90;;;;;;5052391;28;20040;-69
2022/07/01 00:44:27;;;;;;;24.92;11.05;;;14.30;99.90;;;;;;5054270;28;20028;-69
2022/07/01 00:46:53;;;;;;;28.15;10.68;;;14.40;99.90;;;;;;5054064;28;20021;-70
2022/07/01 00:49:20;;;;;;;29.42;12.40;;;14.40;99.90;;;;;;5053897;28;20025;-67
2022/07/01 00:51:47;;;;;;;25.98;12.32;;;14.30;99.90;;;;;;5053461;28;20381;-69
2022/07/01 00:54:13;;;;;;;27.25;11.60;;;14.40;99.90;;;;;;5034161;28;20021;-72
2022/07/01 00:56:38;;;;;;;27.63;12.20;;;14.40;99.90;;;;;;5046746;28;20021;-67
2022/07/01 00:59:04;;;;;;;27.52;12.15;;;14.40;99.90;;;;;;5052458;28;20596;-68
2022/07/01 01:01:29;;;;;;;30.45;12.73;;;14.40;99.90;;;;;;5052571;28;20362;-67
2022/07/01 01:03:56;;;;;;;27.40;12.23;;;14.40;99.90;;;;;;5054173;28;20051;-68
2022/07/01 01:06:22;;;;;;;30.75;15.07;;;14.40;99.90;;;;;;5053876;28;20075;-69
2022/07/01 01:08:48;;;;;;;24.95;11.90;;;14.40;99.90;;;;;;5053484;28;20022;-68
2022/07/01 01:11:16;;;;;;;29.50;14.77;;;14.50;99.90;;;;;;5051375;28;20340;-69
2022/07/01 01:13:42;;;;;;;31.33;14.15;;;14.50;99.90;;;;;;5053802;28;20112;-69
2022/07/01 01:16:14;;;;;;;33.08;15.68;;;14.60;99.90;;;;;;5053742;28;20064;-74
2022/07/01 01:18:40;;;;;;;;;;;14.60;99.90;;;;;;5053932;28;20021;-69
2022/07/01 01:21:06;;;;;;;33.60;16.67;;;14.50;99.90;;;;;;5053535;28;19962;-68
2022/07/01 01:23:32;;;;;;;34.35;17.42;;;14.50;99.90;;;;;;5052213;28;20052;-67
2022/07/01 01:25:57;;;;;;;37.15;16.98;;;14.40;99.90;;;;;;5052657;28;20057;-69
2022/07/01 01:28:24;;;;;;;32.40;14.52;;;14.50;99.90;;;;;;5053561;28;20408;-69
2022/07/01 01:30:52;;;;;;;40.38;18.88;;;14.40;99.90;;;;;;5052074;28;20040;-71
2022/07/01 01:33:20;;;;;;;39.80;18.20;;;14.40;99.90;;;;;;5053272;28;20067;-69
2022/07/01 01:35:47;;;;;;;32.15;12.85;;;14.40;99.90;;;;;;5051515;28;20025;-69
2022/07/01 01:38:14;;;;;;;36.22;18.48;;;14.40;99.90;;;;;;5051924;28;20017;-68
2022/07/01 01:40:43;;;;;;;38.33;17.73;;;14.40;99.90;;;;;;5053143;28;20024;-71
2022/07/01 01:43:16;;;;;;;39.85;20.30;;;14.40;99.90;;;;;;5051741;28;20044;-69
2022/07/01 01:45:41;;;;;;;42.70;20.75;;;14.30;99.90;;;;;;5050906;28;20429;-72
2022/07/01 01:48:07;;;;;;;41.25;18.95;;;14.30;99.90;;;;;;5052929;28;20082;-68
2022/07/01 01:50:32;;;;;;;40.03;19.92;;;14.30;99.90;;;;;;5051803;28;20107;-68
2022/07/01 01:52:58;;;;;;;45.65;20.77;;;14.30;99.90;;;;;;5052714;28;20144;-69
2022/07/01 01:55:24;;;;;;;41.15;19.67;;;14.30;99.90;;;;;;5052948;28;20021;-68
2022/07/01 01:57:49;;;;;;;45.10;20.83;;;14.20;99.90;;;;;;5052949;28;20021;-68
2022/07/01 02:00:15;;;;;;;44.08;21.10;;;14.20;99.90;;;;;;5052895;28;20525;-69
2022/07/01 02:02:40;;;;;;;44.95;20.67;;;14.20;99.90;;;;;;5053007;28;20283;-70
2022/07/01 02:05:10;;;;;;;41.90;19.95;;;14.20;99.90;;;;;;5053161;28;20029;-68
2022/07/01 02:07:35;;;;;;;46.60;21.55;;;14.20;99.90;;;;;;5052542;28;20067;-69
2022/07/01 02:10:01;;;;;;;46.67;22.60;;;14.10;99.90;;;;;;5052627;28;20024;-72
2022/07/01 02:12:26;;;;;;;47.35;22.42;;;14.20;99.90;;;;;;5052512;28;20033;-72
2022/07/01 02:14:52;;;;;;;44.67;19.50;;;14.10;99.90;;;;;;5051396;28;20060;-69
2022/07/01 02:17:17;;;;;;;47.50;21.92;;;14.10;99.90;;;;;;5052995;28;20029;-69
2022/07/01 02:19:43;;;;;;;44.53;21.95;;;14.10;99.90;;;;;;5052531;28;20055;-69
2022/07/01 02:22:08;;;;;;;49.13;21.02;;;14.10;99.90;;;;;;5049165;28;20486;-69
2022/07/01 02:24:34;;;;;;;43.60;20.92;;;14.10;99.90;;;;;;5050051;28;20412;-68
2022/07/01 02:27:00;;;;;;;44.92;21.50;;;14.10;99.90;;;;;;5051064;28;20477;-69
2022/07/01 02:29:25;;;;;;;41.45;19.20;;;14.00;99.90;;;;;;5051394;28;20107;-69
2022/07/01 02:31:51;;;;;;;43.42;20.52;;;14.00;99.90;;;;;;5050547;28;20029;-67
2022/07/01 02:34:16;;;;;;;42.58;21.52;;;14.00;99.90;;;;;;5051609;28;20056;-71
2022/07/01 02:36:42;;;;;;;44.55;19.48;;;14.00;99.90;;;;;;5051374;28;20114;-68
2022/07/01 02:39:07;;;;;;;42.38;18.58;;;14.00;99.90;;;;;;5051339;28;20013;-68
2022/07/01 02:42:22;;;;;;;42.95;20.65;;;14.00;99.90;;;;;;5050975;28;20024;-68
2022/07/01 02:44:19;;;;;;;43.25;20.77;;;14.00;99.90;;;;;;5049610;28;20033;-69
2022/07/01 02:46:44;;;;;;;40.47;19.02;;;14.00;99.90;;;;;;5051137;28;20087;-66
2022/07/01 02:49:10;;;;;;;39.22;19.98;;;14.00;99.90;;;;;;5051295;28;20445;-68
2022/07/01 02:51:35;;;;;;;41.17;19.67;;;14.00;99.90;;;;;;5050813;28;20113;-68
2022/07/01 02:54:01;;;;;;;45.42;20.48;;;14.00;99.90;;;;;;5051386;28;20056;-72
2022/07/01 02:56:27;;;;;;;44.42;21.65;;;13.90;99.90;;;;;;5051115;28;20048;-68
2022/07/01 02:58:52;;;;;;;46.85;20.77;;;14.00;99.90;;;;;;5051369;28;20025;-71
2022/07/01 03:01:18;;;;;;;37.78;18.02;;;14.00;99.90;;;;;;5047990;28;20473;-68
2022/07/01 03:03:43;;;;;;;45.00;19.05;;;13.90;99.90;;;;;;5050887;28;20111;-68
2022/07/01 03:06:09;;;;;;;38.35;17.35;;;13.90;99.90;;;;;;5051894;28;20025;-68
2022/07/01 03:08:34;;;;;;;42.97;19.83;;;13.90;99.90;;;;;;5052023;28;20033;-69
2022/07/01 03:11:00;;;;;;;36.67;17.38;;;13.90;99.90;;;;;;5051777;28;20021;-69
2022/07/01 03:13:25;;;;;;;41.15;19.55;;;13.90;99.90;;;;;;5051761;28;20092;-69
2022/07/01 03:15:51;;;;;;;45.55;18.48;;;13.90;99.90;;;;;;5052130;28;20104;-69
2022/07/01 03:18:16;;;;;;;44.30;17.95;;;13.90;99.90;;;;;;5051707;28;20028;-73
2022/07/01 03:20:42;;;;;;;41.67;19.02;;;13.90;99.90;;;;;;5051622;28;20042;-69
2022/07/01 03:23:07;;;;;;;45.00;19.92;;;13.90;99.90;;;;;;5051516;28;20029;-71
2022/07/01 03:25:35;;;;;;;36.25;16.50;;;13.90;99.90;;;;;;5051785;28;20458;-72
2022/07/01 03:28:03;;;;;;;41.40;18.98;;;13.90;99.90;;;;;;5051768;28;20024;-70
2022/07/01 03:30:28;;;;;;;42.22;17.60;;;13.90;99.90;;;;;;5051781;28;20013;-68
2022/07/01 03:32:54;;;;;;;46.30;20.30;;;13.90;99.90;;;;;;5051238;28;20045;-69
2022/07/01 03:38:04;;;;;;;42.67;20.98;;;13.90;99.90;;;;;;5054843;28;20442;-69
2022/07/01 03:40:30;;;;;;;42.80;19.52;;;13.90;99.90;;;;;;5055235;28;20021;-69
2022/07/01 03:42:56;;;;;;;46.47;22.05;;;13.90;99.90;;;;;;5054854;28;20025;-69
2022/07/01 03:45:22;;;;;;;44.53;18.17;;;13.90;99.90;;;;;;5054834;28;20031;-69
2022/07/01 03:47:48;;;;;;;39.95;17.13;;;13.90;99.90;;;;;;5054905;28;20132;-73
2022/07/01 03:50:15;;;;;;;39.65;18.10;;;13.90;99.90;;;;;;5054999;28;20025;-69
2022/07/01 03:52:42;;;;;;;41.55;19.15;;;13.90;99.90;;;;;;5054930;28;20020;-68
2022/07/01 03:55:08;;;;;;;36.97;16.67;;;13.90;99.90;;;;;;5054623;28;20052;-70
2022/07/01 03:57:34;;;;;;;38.50;18.33;;;13.90;99.90;;;;;;5055016;28;20013;-70
2022/07/01 04:00:00;;;;;;;36.67;16.55;;;13.90;99.90;;;;;;5054345;28;20079;-68
2022/07/01 04:02:25;;;;;;;36.20;16.58;;;14.00;99.90;;;;;;5054923;28;20409;-68
2022/07/01 04:04:51;;;;;;;33.88;16.60;;;13.90;99.90;;;;;;5054998;28;20401;-69
2022/07/01 04:07:16;;;;;;;38.72;15.70;;;14.00;99.90;;;;;;5054662;28;20056;-68
2022/07/01 04:09:42;;;;;;;34.92;15.98;;;14.00;99.90;;;;;;5054683;28;20067;-72
2022/07/01 04:12:10;;;;;;;31.98;14.35;;;14.00;99.90;;;;;;5054501;28;20036;-69
2022/07/01 04:14:36;;;;;;;34.28;14.70;;;14.10;99.90;;;;;;5054151;28;20016;-71
2022/07/01 04:17:02;;;;;;;32.10;14.27;;;14.10;99.90;;;;;;5054366;28;20013;-73
2022/07/01 04:19:28;;;;;;;29.40;14.23;;;14.10;99.90;;;;;;5054546;28;20024;-71
2022/07/01 04:24:37;;;;;;;30.58;12.95;;;14.10;99.90;;;;;;5053192;28;20413;-68
2022/07/01 04:27:03;;;;;;;32.30;14.77;;;14.10;99.90;;;;;;5053704;28;20017;-72
2022/07/01 04:29:30;;;;;;;29.40;13.73;;;14.20;99.90;;;;;;5054191;28;20499;-72
2022/07/01 04:31:56;;;;;;;31.95;14.65;;;14.30;99.90;;;;;;5054279;28;20017;-69
2022/07/01 04:34:22;;;;;;;31.48;14.40;;;14.30;99.90;;;;;;5054096;28;20120;-71
2022/07/01 04:36:48;;;;;;;25.75;11.45;;;14.30;99.90;;;;;;5053823;28;20050;-72
2022/07/01 04:39:13;;;;;;;25.50;11.50;;;14.40;99.90;;;;;;5054337;28;20025;-69
2022/07/01 04:44:23;;;;;;;23.80;11.40;;;14.60;99.90;;;;;;5054634;28;20110;-72
2022/07/01 04:46:49;;;;;;;25.27;12.73;;;14.70;99.90;;;;;;5054482;28;20060;-69
2022/07/01 04:49:14;;;;;;;22.45;8.57;;;14.80;99.90;;;;;;5054045;28;20025;-67
2022/07/01 04:51:40;;;;;;;19.45;9.10;;;14.80;99.90;;;;;;5054201;28;20443;-69
2022/07/01 04:54:06;;;;;;;26.20;10.50;;;14.90;99.90;;;;;;5053673;28;20023;-69
2022/07/01 04:56:33;;;;;;;23.13;9.02;;;15.00;99.90;;;;;;5053597;28;20048;-70
2022/07/01 04:59:00;;;;;;;16.63;7.82;;;15.20;99.90;;;;;;5053673;28;20021;-73
2022/07/01 05:01:26;;;;;;;18.05;8.13;;;15.30;99.90;;;;;;5053720;28;20032;-69
2022/07/01 05:03:51;;;;;;;17.95;8.13;;;15.40;99.90;;;;;;5054291;28;20028;-70
2022/07/01 05:06:17;;;;;;;25.00;10.50;;;15.50;99.90;;;;;;5054373;28;20017;-68
2022/07/01 05:08:43;;;;;;;22.33;8.85;;;15.70;99.90;;;;;;5054240;28;20028;-69
2022/07/01 05:11:09;;;;;;;20.23;8.32;;;15.90;99.90;;;;;;5054088;28;20526;-67
2022/07/01 05:13:34;;;;;;;14.60;6.78;;;16.00;99.90;;;;;;5054054;28;20020;-69
2022/07/01 05:16:00;;;;;;;13.63;5.63;;;16.20;99.90;;;;;;5053915;28;20025;-69
2022/07/01 05:23:54;;;;;;;18.88;7.05;;;16.10;99.90;;;;;;5053849;28;20490;-69
2022/07/01 05:26:20;;;;;;;18.30;6.80;;;16.00;99.90;;;;;;5053546;28;20025;-72
2022/07/01 05:28:46;;;;;;;16.50;5.53;;;15.90;99.90;;;;;;5053950;28;20433;-69
2022/07/01 05:31:12;;;;;;;17.33;6.78;;;16.00;99.90;;;;;;5053949;28;20047;-71
2022/07/01 05:33:38;;;;;;;15.77;6.57;;;16.40;99.90;;;;;;5052004;28;20041;-71
2022/07/01 05:36:04;;;;;;;21.92;8.27;;;16.70;99.90;;;;;;5053500;28;20036;-72
2022/07/01 05:38:29;;;;;;;16.67;6.63;;;16.80;99.90;;;;;;5053586;28;20028;-70
2022/07/01 05:40:55;;;;;;;11.15;4.93;;;16.80;99.90;;;;;;5053563;28;20020;-69
2022/07/01 05:43:20;;;;;;;13.32;5.18;;;17.10;99.90;;;;;;5052165;28;20119;-70
2022/07/01 05:45:46;;;;;;;16.02;5.32;;;17.70;99.90;;;;;;5053757;28;20036;-67
2022/07/01 05:48:12;;;;;;;14.10;4.85;;;18.20;99.90;;;;;;5053451;28;20024;-69
2022/07/01 05:50:39;;;;;;;15.05;4.75;;;18.80;99.90;;;;;;5053077;28;20025;-68
2022/07/01 05:53:05;;;;;;;11.85;4.50;;;19.10;99.90;;;;;;5053703;28;20033;-69
2022/07/01 05:55:30;;;;;;;9.80;3.67;;;19.20;99.90;;;;;;5053328;28;20075;-69
2022/07/01 05:57:56;;;;;;;9.98;4.45;;;19.10;99.90;;;;;;5052802;28;20028;-73
2022/07/01 06:00:22;;;;;;;12.13;4.40;;;19.20;99.90;;;;;;5053351;28;20094;-70
2022/07/01 06:02:47;;;;;;;10.15;4.28;;;19.50;99.90;;;;;;5053089;28;20102;-72
2022/07/01 06:05:13;;;;;;;9.80;4.10;;;19.60;99.90;;;;;;5052886;28;20071;-72
2022/07/01 06:07:40;;;;;;;9.70;3.67;;;20.00;99.90;;;;;;5053051;28;20021;-72
2022/07/01 06:10:07;;;;;;;8.57;3.40;;;20.80;99.90;;;;;;5052706;28;20021;-68
2022/07/01 06:12:32;;;;;;;8.73;3.30;;;21.60;99.90;;;;;;5052198;28;20090;-69
2022/07/01 06:14:58;;;;;;;14.05;4.30;;;21.80;99.90;;;;;;5052995;28;20412;-71
2022/07/01 06:17:24;;;;;;;11.20;4.07;;;22.20;99.90;;;;;;5052811;28;20512;-69
2022/07/01 06:19:49;;;;;;;13.90;4.20;;;22.60;99.90;;;;;;5052564;28;20029;-69
2022/07/01 06:22:17;;;;;;;8.65;3.88;;;22.90;99.90;;;;;;5052750;28;20043;-70
2022/07/01 06:24:44;;;;;;;15.57;4.70;;;23.20;99.90;;;;;;5052950;28;20473;-72
2022/07/01 06:27:11;;;;;;;7.38;3.28;;;23.60;99.90;;;;;;5051284;28;20378;-69
2022/07/01 06:29:36;;;;;;;7.38;2.85;;;24.10;99.90;;;;;;5053136;28;20025;-68
2022/07/01 06:32:07;;;;;;;5.60;2.60;;;24.40;99.90;;;;;;5052473;28;21055;-68
2022/07/01 06:34:33;;;;;;;9.10;3.00;;;24.70;99.90;;;;;;5052720;28;20028;-68
2022/07/01 06:37:03;;;;;;;13.52;4.30;;;24.40;99.90;;;;;;5053009;28;20017;-69
2022/07/01 06:39:29;;;;;;;10.57;2.83;;;24.00;99.90;;;;;;5052799;28;20021;-67
2022/07/01 06:41:55;;;;;;;12.20;5.43;;;23.70;99.90;;;;;;5052468;28;20056;-68
2022/07/01 06:44:21;;;;;;;13.60;5.82;;;23.80;99.90;;;;;;5052952;28;20075;-73
2022/07/01 06:46:47;;;;;;;10.15;3.47;;;23.70;99.90;;;;;;5052670;28;20408;-69
2022/07/01 06:49:12;;;;;;;9.85;3.20;;;23.10;99.90;;;;;;5052526;28;20028;-69
2022/07/01 06:51:38;;;;;;;16.10;6.28;;;22.60;99.90;;;;;;5052936;28;20417;-71
2022/07/01 06:54:04;;;;;;;13.02;4.50;;;22.40;99.90;;;;;;5052602;28;20032;-68
2022/07/01 06:56:29;;;;;;;11.38;3.10;;;22.50;99.90;;;;;;5052835;28;20082;-67
2022/07/01 06:58:55;;;;;;;12.65;4.55;;;23.10;99.90;;;;;;5052423;28;20020;-68
2022/07/01 07:01:22;;;;;;;16.65;5.93;;;23.30;99.90;;;;;;5052030;28;20059;-68
2022/07/01 07:03:47;;;;;;;13.88;4.13;;;23.40;99.90;;;;;;5051731;28;20071;-71
2022/07/01 07:06:13;;;;;;;7.30;2.65;;;23.10;99.90;;;;;;5052477;28;20037;-69
2022/07/01 07:08:38;;;;;;;9.73;3.45;;;22.40;99.90;;;;;;5052554;28;20021;-68
2022/07/01 07:11:05;;;;;;;6.25;2.17;;;21.90;99.90;;;;;;5056524;28;20055;-68
2022/07/01 07:13:30;;;;;;;12.27;3.88;;;21.40;99.90;;;;;;5056348;28;20032;-67
2022/07/01 07:15:56;;;;;;;12.05;4.43;;;20.80;99.90;;;;;;5056186;28;20025;-68
2022/07/01 07:18:22;;;;;;;5.70;1.95;;;20.40;99.90;;;;;;5056195;28;20025;-70
2022/07/01 07:20:47;;;;;;;7.95;2.15;;;20.10;99.90;;;;;;5055821;28;20029;-71
2022/07/01 07:23:14;;;;;;;6.78;2.53;;;20.70;99.90;;;;;;5056227;28;20450;-68
2022/07/01 07:25:40;;;;;;;9.68;2.72;;;21.50;99.90;;;;;;5054503;28;20378;-68
2022/07/01 07:28:05;;;;;;;10.00;3.25;;;21.60;99.90;;;;;;5055998;28;20021;-69
2022/07/01 07:30:31;;;;;;;8.57;2.50;;;22.00;99.90;;;;;;5055838;28;20032;-68
2022/07/01 07:32:56;;;;;;;5.57;1.67;;;22.20;99.90;;;;;;5055846;28;20107;-73
2022/07/01 07:35:23;;;;;;;4.22;1.75;;;22.80;99.90;;;;;;5055821;28;20468;-69
2022/07/01 07:37:48;;;;;;;5.05;1.55;;;23.60;98.60;;;;;;5055930;28;20096;-68
2022/07/01 07:40:18;;;;;;;4.53;1.40;;;24.40;97.20;;;;;;5055785;28;20176;-68
2022/07/01 07:42:45;;;;;;;5.55;1.52;;;25.50;95.90;;;;;;5055882;28;20164;-72
2022/07/01 07:45:11;;;;;;;2.60;1.20;;;26.30;94.50;;;;;;5055537;28;20029;-70
2022/07/01 07:47:37;;;;;;;7.22;2.30;;;26.40;93.30;;;;;;5055659;28;20021;-72
2022/07/01 07:50:05;;;;;;;4.60;1.88;;;25.80;93.80;;;;;;5055764;28;20017;-72
2022/07/01 07:52:30;;;;;;;4.32;1.45;;;25.60;93.90;;;;;;5055395;28;20020;-71
2022/07/01 07:54:56;;;;;;;4.07;1.67;;;25.70;93.60;;;;;;5055626;28;20025;-68
2022/07/01 07:57:22;;;;;;;6.32;1.40;;;25.30;94.00;;;;;;5055847;28;20064;-71
2022/07/01 07:59:48;;;;;;;5.78;1.75;;;24.90;94.10;;;;;;5055288;28;20469;-68
2022/07/01 08:02:14;;;;;;;4.13;1.30;;;24.40;94.80;;;;;;5055445;28;20115;-69
2022/07/01 08:04:39;;;;;;;10.45;2.33;;;24.10;95.00;;;;;;5055475;28;20439;-71
2022/07/01 08:07:05;;;;;;;6.65;2.17;;;23.80;95.70;;;;;;5055668;28;20027;-70
2022/07/01 08:09:34;;;;;;;7.00;1.92;;;23.70;94.80;;;;;;5069437;28;20463;-68
2022/07/01 08:12:00;;;;;;;7.07;1.90;;;23.70;95.70;;;;;;5067260;28;20020;-68
2022/07/01 08:14:26;;;;;;;6.70;1.88;;;23.80;94.30;;;;;;5064407;28;20450;-68
2022/07/01 08:16:52;;;;;;;5.35;2.15;;;23.70;94.60;;;;;;5068013;28;20059;-71
2022/07/01 08:19:18;;;;;;;5.55;1.50;;;23.90;94.30;;;;;;5071816;28;20040;-68
2022/07/01 08:21:44;;;;;;;8.85;1.83;;;24.00;94.10;;;;;;5070833;28;20096;-67
2022/07/01 08:24:09;;;;;;;9.77;1.95;;;23.70;94.10;;;;;;5063968;28;20033;-69
2022/07/01 08:26:35;;;;;;;3.00;1.33;;;23.40;94.70;;;;;;5065589;28;20032;-69
2022/07/01 08:29:00;;;;;;;3.75;1.10;;;23.20;95.30;;;;;;5069518;28;20024;-67
2022/07/01 08:31:26;;;;;;;2.13;1.08;;;23.10;94.50;;;;;;5067448;28;20039;-72
2022/07/01 08:33:52;;;;;;;5.20;1.70;;;23.50;93.70;;;;;;5066974;28;20041;-68
2022/07/01 08:36:17;;;;;;;4.60;0.80;;;24.10;93.50;;;;;;5069452;28;20054;-72
2022/07/01 08:38:43;;;;;;;10.35;2.35;;;24.30;93.20;;;;;;5067394;28;20499;-67
2022/07/01 08:41:09;;;;;;;7.63;1.95;;;25.20;93.50;;;;;;5073551;28;20020;-68
2022/07/01 08:43:35;;;;;;;4.20;1.25;;;26.30;92.30;;;;;;5068981;28;20033;-67
2022/07/01 08:46:01;;;;;;;5.80;1.48;;;26.60;90.60;;;;;;5071245;28;20350;-67
2022/07/01 08:48:31;;;;;;;5.95;1.33;;;26.30;90.90;;;;;;5064658;28;20060;-68
2022/07/01 08:50:58;;;;;;;2.55;1.00;;;26.40;90.60;;;;;;5070005;28;20043;-68
2022/07/01 08:53:23;;;;;;;8.70;1.77;;;26.20;88.80;;;;;;5063224;28;20029;-68
2022/07/01 08:58:33;;;;;;;3.83;1.23;;;25.50;89.90;;;;;;5066488;28;20496;-67
2022/07/01 09:01:22;;;;;;;5.75;1.10;;;25.40;90.60;;;;;;5070837;28;20012;-67
2022/07/01 09:03:50;;;;;;;4.72;1.27;;;25.30;91.00;;;;;;5069301;28;20025;-67
2022/07/01 09:06:20;;;;;;;5.97;1.20;;;25.00;90.50;;;;;;5074367;28;20035;-68
2022/07/01 09:08:47;;;;;;;9.15;2.10;;;25.00;91.60;;;;;;5073057;28;20357;-68
2022/07/01 09:11:24;;;;;;;5.72;1.33;;;25.50;91.20;;;;;;5074155;28;20560;-69
2022/07/01 09:14:14;;;;;;;6.20;1.10;;;25.80;90.20;;;;;;5073730;28;20351;-68
2022/07/01 09:16:51;;;;;;;6.53;1.40;;;25.90;90.80;;;;;;5074133;28;20023;-68
2022/07/01 09:19:18;;;;;;;6.93;1.38;;;26.20;89.20;;;;;;5073922;28;20060;-72
2022/07/01 09:21:59;;;;;;;8.10;2.30;;;25.80;88.60;;;;;;5073476;28;20103;-67
2022/07/01 09:24:41;;;;;;;7.57;1.38;;;25.90;89.10;;;;;;5073804;28;20070;-67
2022/07/01 09:27:16;;;;;;;5.15;1.05;;;26.20;86.90;;;;;;5073767;28;20086;-67
2022/07/01 09:29:46;;;;;;;4.45;1.10;;;26.60;85.90;;;;;;5073211;28;20025;-68
2022/07/01 09:32:16;;;;;;;2.15;0.85;;;27.50;86.10;;;;;;5072236;28;20516;-68
2022/07/01 09:34:42;;;;;;;9.27;1.58;;;27.90;83.50;;;;;;5072691;28;20450;-69
2022/07/01 09:37:11;;;;;;;6.38;1.38;;;28.10;85.60;;;;;;5073267;28;20477;-69
2022/07/01 09:39:45;;;;;;;8.55;1.92;;;28.70;84.10;;;;;;5072995;28;20442;-69
2022/07/01 09:42:11;;;;;;;8.48;1.88;;;29.60;83.40;;;;;;5073177;28;20025;-67
2022/07/01 09:45:12;;;;;;;5.35;1.08;;;29.60;81.60;;;;;;5073303;28;20024;-67
2022/07/01 09:47:45;;;;;;;7.22;2.10;;;29.40;79.80;;;;;;5073790;28;20048;-70
2022/07/01 09:50:10;;;;;;;9.25;2.35;;;28.80;82.10;;;;;;5074018;28;20041;-68
2022/07/01 09:52:38;;;;;;;7.55;1.98;;;28.60;83.00;;;;;;5073718;28;20024;-69
2022/07/01 09:55:08;;;;;;;13.55;3.75;;;29.40;81.50;;;;;;5073498;28;20053;-67
2022/07/01 09:57:33;;;;;;;10.60;2.78;;;29.70;81.00;;;;;;5073067;28;20079;-70
2022/07/01 09:59:59;;;;;;;11.43;2.55;;;29.40;81.30;;;;;;5072960;28;20414;-70
2022/07/01 10:02:29;;;;;;;7.38;1.33;;;29.00;81.90;;;;;;5056337;28;20025;-68
2022/07/01 10:05:12;;;;;;;6.18;2.33;;;28.50;81.10;;;;;;5051491;28;20029;-68
2022/07/01 10:07:58;;;;;;;10.20;2.05;;;28.00;82.30;;;;;;5053522;28;20021;-69
2022/07/01 10:10:42;;;;;;;5.80;1.25;;;27.70;81.30;;;;;;5053594;28;20041;-68
2022/07/01 10:13:10;;;;;;;5.47;2.00;;;28.20;80.10;;;;;;5052960;28;20020;-70
2022/07/01 10:15:37;;;;;;;5.93;1.60;;;28.70;78.90;;;;;;5053106;28;20017;-69
2022/07/01 10:18:03;;;;;;;9.32;1.88;;;29.00;78.40;;;;;;5053027;28;20076;-69
2022/07/01 10:20:30;;;;;;;4.72;1.27;;;28.90;77.50;;;;;;5052944;28;20462;-69
2022/07/01 10:23:05;;;;;;;7.45;1.85;;;28.30;80.30;;;;;;5052965;28;20120;-69
2022/07/01 10:25:43;;;;;;;8.60;2.50;;;27.90;80.90;;;;;;5052738;28;20021;-69
2022/07/01 10:28:19;;;;;;;3.33;1.65;;;27.50;80.00;;;;;;5053137;28;20064;-70
2022/07/01 10:30:56;;;;;;;10.25;1.60;;;26.80;81.70;;;;;;5053026;28;20048;-68
2022/07/01 10:33:43;;;;;;;11.00;3.47;;;26.60;83.10;;;;;;5052942;28;20128;-69
2022/07/01 10:36:24;;;;;;;6.53;1.27;;;27.50;81.90;;;;;;5052884;28;20054;-70
2022/07/01 10:39:10;;;;;;;10.25;2.25;;;27.80;79.90;;;;;;5053043;28;20017;-71
2022/07/01 10:41:39;;;;;;;8.18;1.38;;;28.60;79.70;;;;;;5051874;28;20037;-67
2022/07/01 10:44:07;;;;;;;6.55;1.20;;;29.50;76.50;;;;;;5054889;28;20052;-68
2022/07/01 10:46:56;;;;;;;6.70;1.75;;;29.60;76.30;;;;;;5064155;28;20032;-69
2022/07/01 10:49:37;;;;;;;7.15;1.77;;;29.60;75.40;;;;;;5073123;28;20020;-69
2022/07/01 10:52:11;;;;;;;5.35;1.20;;;29.80;73.80;;;;;;5073372;28;20020;-70
2022/07/01 10:54:38;;;;;;;6.47;1.77;;;29.60;72.20;;;;;;5073330;28;20013;-70
2022/07/01 10:57:15;;;;;;;4.32;1.33;;;29.80;72.00;;;;;;5072437;28;20377;-68
2022/07/01 10:59:42;;;;;;;8.93;1.52;;;29.90;69.60;;;;;;5073269;28;20451;-69
2022/07/01 11:02:31;;;;;;;4.30;1.30;;;29.50;71.90;;;;;;5071069;28;20109;-68
2022/07/01 11:05:02;;;;;;;4.82;1.50;;;29.60;71.40;;;;;;5066653;28;20108;-69
2022/07/01 11:07:31;;;;;;;6.60;1.45;;;29.30;71.30;;;;;;5054980;28;20163;-69
2022/07/01 11:09:58;;;;;;;5.30;1.90;;;29.00;72.90;;;;;;5069664;28;20500;-69
2022/07/01 11:12:24;;;;;;;7.18;1.40;;;28.90;73.50;;;;;;5071023;28;20009;-68
2022/07/01 11:14:51;;;;;;;7.68;1.33;;;29.10;72.80;;;;;;5066706;28;20038;-68
2022/07/01 11:17:17;;;;;;;7.10;1.30;;;28.90;74.40;;;;;;5056349;28;20017;-68
2022/07/01 11:19:57;;;;;;;9.90;1.40;;;29.00;75.20;;;;;;5063726;28;20048;-69
2022/07/01 11:22:26;;;;;;;9.20;1.40;;;29.40;74.50;;;;;;5058637;28;20021;-69
2022/07/01 11:24:56;;;;;;;3.80;1.48;;;29.50;72.90;;;;;;5066953;28;20039;-68
2022/07/01 11:27:22;;;;;;;4.82;1.35;;;29.10;73.80;;;;;;5069280;28;20087;-68
2022/07/01 11:30:11;;;;;;;6.05;1.48;;;28.70;74.10;;;;;;5069498;28;20092;-69
2022/07/01 11:32:42;;;;;;;5.10;1.27;;;28.40;74.70;;;;;;5064257;28;20369;-69
2022/07/01 11:41:01;;;;;;;4.00;1.20;;;27.20;77.00;;;;;;5060326;28;20023;-69
2022/07/01 11:43:36;;;;;;;6.30;1.23;;;26.70;79.60;;;;;;5075652;28;20493;-68
2022/07/01 11:46:04;;;;;;;7.53;1.40;;;26.30;81.40;;;;;;5075898;28;20016;-68
2022/07/01 11:48:35;;;;;;;11.18;1.40;;;25.70;83.80;;;;;;5075677;28;20438;-67
2022/07/01 11:51:05;;;;;;;4.85;0.98;;;26.20;83.00;;;;;;5075149;28;20413;-67
2022/07/01 11:53:31;;;;;;;2.50;0.90;;;27.00;80.70;;;;;;5075507;28;20146;-68
2022/07/01 11:55:56;;;;;;;7.45;1.58;;;27.30;78.50;;;;;;5074725;28;20474;-67
2022/07/01 11:58:22;;;;;;;4.72;1.05;;;28.10;78.30;;;;;;5075595;28;20142;-69
2022/07/01 12:00:48;;;;;;;3.95;0.93;;;28.90;75.20;;;;;;5074983;28;20362;-66
2022/07/01 12:03:29;;;;;;;3.53;0.75;;;29.40;74.60;;;;;;5055120;28;20087;-68
2022/07/01 12:05:55;;;;;;;1.88;0.80;;;30.10;73.50;;;;;;5050575;28;20020;-67
2022/07/01 12:08:21;;;;;;;5.28;0.90;;;30.80;71.10;;;;;;5052337;28;20021;-67
2022/07/01 12:10:47;;;;;;;2.00;0.88;;;30.90;70.20;;;;;;5054622;28;20087;-66
2022/07/01 12:13:26;;;;;;;3.38;1.17;;;31.10;70.50;;;;;;5054544;28;20028;-66
2022/07/01 12:15:52;;;;;;;5.10;1.20;;;31.30;70.20;;;;;;5052786;28;20052;-65
2022/07/01 12:18:18;;;;;;;5.65;1.10;;;31.50;71.00;;;;;;5052053;28;20072;-65
2022/07/01 12:20:50;;;;;;;7.05;1.10;;;31.20;71.10;;;;;;5052078;28;20028;-65
2022/07/01 12:23:16;;;;;;;3.58;1.08;;;30.70;72.80;;;;;;5054842;28;20060;-65
2022/07/01 12:25:47;;;;;;;5.85;1.00;;;30.70;72.80;;;;;;5054204;28;20021;-68
2022/07/01 12:28:25;;;;;;;7.47;1.10;;;30.90;72.50;;;;;;5054397;28;20035;-68
2022/07/01 12:31:04;;;;;;;3.72;1.25;;;31.30;69.80;;;;;;5052630;28;20017;-67
2022/07/01 12:33:30;;;;;;;3.38;1.02;;;31.20;70.80;;;;;;5052801;28;20041;-66
2022/07/01 12:35:56;;;;;;;7.35;1.48;;;30.70;70.20;;;;;;5054826;28;20416;-66
2022/07/01 12:38:22;;;;;;;5.82;0.88;;;30.20;71.40;;;;;;5054824;28;20022;-65
2022/07/01 12:40:47;;;;;;;7.43;1.15;;;29.40;72.90;;;;;;5053085;28;20371;-66
2022/07/01 12:43:31;;;;;;;2.22;1.00;;;28.80;74.20;;;;;;5054508;28;20036;-64
2022/07/01 12:45:58;;;;;;;6.47;1.58;;;28.60;75.20;;;;;;5054616;28;20013;-66
2022/07/01 12:48:24;;;;;;;4.78;1.02;;;28.60;74.80;;;;;;5054577;28;20100;-64
2022/07/01 12:50:57;;;;;;;7.28;1.23;;;28.30;73.80;;;;;;5054498;28;20280;-64
2022/07/01 12:53:25;;;;;;;3.75;1.05;;;27.80;75.20;;;;;;5052626;28;20138;-64
2022/07/01 12:55:56;;;;;;;7.30;1.80;;;27.30;76.70;;;;;;5054348;28;20459;-65
2022/07/01 12:58:26;;;;;;;2.80;0.90;;;26.90;78.10;;;;;;5054531;28;20071;-63
2022/07/01 13:00:58;;;;;;;3.05;0.85;;;26.90;77.30;;;;;;5053094;28;20488;-65
2022/07/01 13:03:25;;;;;;;4.45;0.88;;;26.60;75.80;;;;;;5054172;28;20040;-67